Airfield :
LOGIN :

Register | Disclaimer

   EN    FR    IT 

 










Legend :    VFR   Marginal VFR   IFR   Intensive IFR   Very Intensive IFR
Visi :
Ceiling :
>= 8 km
>= 3000ft
5 to 8 km
1000 to 3000 ft
1500m to 5 km
500 to 1000 ft
800 to 1500m
200 to 500 ft
< 800m
< 200 ft
Symbols :   Thunderstorms  Fog  Heavy snow  Heavy precipitations  Wind > 20 kt
SIGMETs :     Misc.  Thunderstorms  Icing  Turbulence  Mountain Waves  Volcanic Ashes






- Airport Elevation : 600 ft
- IATA code : VIE


LOWW - Vienna Schwechat

CURRENT METAR :
  • 290750Z 14012KT 9999 FEW008 BKN009 03/00 Q1020 TEMPO BKN012

EXPIRED METARs :
  • 290720Z 14012KT 9999 FEW008 BKN009 03/00 Q1020 TEMPO BKN012
  • 290650Z 14013KT 9000 FEW007 BKN009 03/01 Q1020 TEMPO BKN012
  • 290620Z 14011KT 9000 FEW007 BKN009 03/01 Q1020 TEMPO BKN012
  • 290550Z 14012KT 9000 FEW008 BKN010 02/00 Q1020 TEMPO BKN008

TAF TAF LOWW
Valid from the 29 at 06:00 until the 30 at 12:00 UTC


290515Z 2906/3012 14015KT 9000 BKN020 TX04/2913Z TN01/3001Z
TEMPO 2906/2909 BKN008
BECMG 2923/3001 14005KT 3000 BCFG FEW002 BKN004
PROB30
TEMPO 3001/3005 1200 OVC002
FM300800 35003KT 9000 FEW012 BKN050



MET'MAP, your aeronautical weather chart ! - Copyright ORBIFLY December 2007 - Disclaimer

ORBIFLY MET'MAP TEAM :

Programming & Development : Alexandra Zaïnal
Original concept : Baudouin d'Aumeries
Technical & hardware support : Manuel Goepfert
Assistance : Marc-Olivier Méhu




SOURCES & CREDITS :

   NOAA